Deseret, Utah
Current Conditions -  °F | °C
As of 4:15 PM on Friday 19 Dec 2014 (Local Time) from KDTA Reporting Station
Clear Clear  
Wind Chill: 41°   Ceiling: Unl
Heat Index: 44°   Visibility: 10mi
Dew Point: 25°   Wind: 6mph
Humidity: 47%   Direction: 140°SE
Pressure: 30.12"   Gusts: NA
Location:  39.3657°N, 112.477°W
Report Text: KDTA 192315Z AUTO 14005KT 10SM CLR 07/M04 A3012 RMK AO1 T00671038
Loading
Personal Weather Stations






























Interactive Weather Map New forecast layout! Learn more

10-Day Weather Forecast

Advertisements
Track Severe Weather on mobile